Time;durP1;ratioP1;P1;durP2;ratioP2;P2;SDS_P1;SDS_P2;PMS_P1;PMS_P2;Temp;Humidity;BMP_temperature;BMP_pressure;BME280_temperature;BME280_humidity;BME280_pressure;Samples;Min_cycle;Max_cycle;Signal;HPM_P1;HPM_P2
2021/03/01 00:01:24;;;;;;;113.85;14.98;;;1.60;99.90;;;;;;5074754;28;20400;-61
2021/03/01 00:03:50;;;;;;;176.32;15.48;;;1.70;99.90;;;;;;5092866;28;20377;-61
2021/03/01 00:06:16;;;;;;;71.50;14.05;;;1.70;99.90;;;;;;5092611;28;20391;-61
2021/03/01 00:08:43;;;;;;;215.20;17.42;;;1.80;99.90;;;;;;5092932;28;20388;-61
2021/03/01 00:11:09;;;;;;;183.90;15.85;;;1.80;99.90;;;;;;5092887;28;20377;-61
2021/03/01 00:13:35;;;;;;;148.53;15.50;;;1.80;99.90;;;;;;5092624;28;20703;-61
2021/03/01 00:16:01;;;;;;;161.50;16.75;;;1.80;99.90;;;;;;5074591;28;20393;-61
2021/03/01 00:18:27;;;;;;;138.70;16.58;;;1.80;99.90;;;;;;5092857;28;20384;-61
2021/03/01 00:20:53;;;;;;;97.13;14.48;;;1.80;99.90;;;;;;5092395;28;20848;-61
2021/03/01 00:23:19;;;;;;;85.28;14.77;;;1.80;99.90;;;;;;5092200;28;20391;-60
2021/03/01 00:25:46;;;;;;;134.73;15.57;;;1.80;99.90;;;;;;5092554;28;20384;-61
2021/03/01 00:28:12;;;;;;;63.03;14.85;;;1.80;99.90;;;;;;5092608;28;20745;-61
2021/03/01 00:30:38;;;;;;;109.35;15.25;;;1.80;99.90;;;;;;5092947;28;20804;-61
2021/03/01 00:33:04;;;;;;;109.78;15.48;;;1.90;99.90;;;;;;5092282;28;20880;-60
2021/03/01 00:35:31;;;;;;;101.75;15.20;;;1.80;99.90;;;;;;5073886;28;20391;-61
2021/03/01 00:37:57;;;;;;;119.88;15.48;;;1.90;99.90;;;;;;5092434;28;20408;-60
2021/03/01 00:40:23;;;;;;;114.72;15.80;;;1.90;99.90;;;;;;5092831;28;20383;-61
2021/03/01 00:42:49;;;;;;;124.93;16.30;;;2.00;99.90;;;;;;5073623;28;20472;-61
2021/03/01 00:45:16;;;;;;;63.67;14.85;;;1.90;99.90;;;;;;5091573;28;20383;-61
2021/03/01 00:47:42;;;;;;;146.02;16.45;;;1.80;99.90;;;;;;5092489;28;20943;-61
2021/03/01 00:50:09;;;;;;;93.22;15.43;;;1.80;99.90;;;;;;5073097;28;20411;-61
2021/03/01 00:52:35;;;;;;;147.60;16.57;;;1.80;99.90;;;;;;5091991;28;20396;-61
2021/03/01 00:55:01;;;;;;;200.95;16.40;;;1.90;99.90;;;;;;5091923;28;20470;-61
2021/03/01 00:57:27;;;;;;;208.98;18.27;;;1.90;99.90;;;;;;5092376;28;20404;-61
2021/03/01 00:59:53;;;;;;;120.18;15.88;;;2.00;99.90;;;;;;5092045;28;20391;-61
2021/03/01 01:02:20;;;;;;;122.30;15.07;;;1.90;99.90;;;;;;5092013;28;20399;-61
2021/03/01 01:04:46;;;;;;;120.38;15.95;;;2.00;99.90;;;;;;5073867;28;20365;-61
2021/03/01 01:07:13;;;;;;;121.47;14.57;;;1.90;99.90;;;;;;5091918;28;20384;-61
2021/03/01 01:09:39;;;;;;;125.50;14.75;;;2.00;99.90;;;;;;5073846;28;20380;-61
2021/03/01 01:12:05;;;;;;;91.33;14.03;;;2.00;99.90;;;;;;5091418;28;20384;-61
2021/03/01 01:14:32;;;;;;;99.90;13.55;;;2.00;99.90;;;;;;5092067;28;20380;-61
2021/03/01 01:16:58;;;;;;;143.23;14.30;;;2.00;99.90;;;;;;5091828;28;20423;-61
2021/03/01 01:19:24;;;;;;;76.03;13.55;;;2.00;99.90;;;;;;5091536;28;20369;-61
2021/03/01 01:21:50;;;;;;;138.30;14.85;;;2.00;99.90;;;;;;5073530;28;20396;-61
2021/03/01 01:24:17;;;;;;;110.22;14.00;;;2.00;99.90;;;;;;5091885;28;20388;-61
2021/03/01 01:26:43;;;;;;;161.27;14.52;;;2.00;99.90;;;;;;5091878;28;20389;-61
2021/03/01 01:29:09;;;;;;;177.25;14.90;;;2.00;99.90;;;;;;5090555;28;20396;-60
2021/03/01 01:31:35;;;;;;;115.72;13.75;;;2.00;99.90;;;;;;5091757;28;20387;-61
2021/03/01 01:34:01;;;;;;;149.87;13.80;;;2.00;99.90;;;;;;5091891;28;20371;-61
2021/03/01 01:36:27;;;;;;;144.48;14.68;;;2.10;99.90;;;;;;5091136;28;20400;-60
2021/03/01 01:38:54;;;;;;;144.65;14.40;;;2.00;99.90;;;;;;5091840;28;20372;-60
2021/03/01 01:41:20;;;;;;;105.60;12.48;;;2.00;99.90;;;;;;5091450;28;20737;-61
2021/03/01 01:43:47;;;;;;;161.45;14.38;;;2.10;99.90;;;;;;5091514;28;20385;-61
2021/03/01 01:46:13;;;;;;;139.90;13.63;;;2.10;99.90;;;;;;5091169;28;20392;-61
2021/03/01 01:48:39;;;;;;;136.23;14.38;;;2.10;99.90;;;;;;5091661;28;20738;-61
2021/03/01 01:51:05;;;;;;;140.38;13.38;;;2.00;99.90;;;;;;5091405;28;20741;-61
2021/03/01 01:53:31;;;;;;;133.60;13.60;;;2.00;99.90;;;;;;5091342;28;20387;-61
2021/03/01 01:55:58;;;;;;;118.45;13.30;;;2.10;99.90;;;;;;5092263;28;20380;-61
2021/03/01 01:58:24;;;;;;;145.90;13.15;;;2.00;99.90;;;;;;5060478;28;20404;-61
2021/03/01 02:00:51;;;;;;;107.65;12.57;;;2.00;99.90;;;;;;5076934;28;20406;-60
2021/03/01 02:03:32;;;;;;;;;;;2.10;99.90;;;;;;5061390;28;20389;-60
2021/03/01 02:06:16;;;;;;;;;;;2.10;99.90;;;;;;5097127;28;19904;-60
2021/03/01 02:09:02;;;;;;;;;;;2.00;99.90;;;;;;5096654;28;19908;-60
2021/03/01 02:11:30;;;;;;;;;;;2.00;99.90;;;;;;5091206;28;19912;-60
2021/03/01 02:14:11;;;;;;;;;;;1.90;99.90;;;;;;5078860;28;19904;-60
2021/03/01 02:16:37;;;;;;;;;;;1.90;99.90;;;;;;5096287;28;19920;-60
2021/03/01 02:19:04;;;;;;;;;;;1.80;99.90;;;;;;5096918;28;19958;-60
2021/03/01 02:21:30;;;;;;;;;;;1.80;99.90;;;;;;5078092;28;19912;-60
2021/03/01 02:23:56;;;;;;;;;;;1.90;99.90;;;;;;5096529;28;19920;-60
2021/03/01 02:26:29;;;;;;;;;;;1.90;99.90;;;;;;5078390;28;19904;-60
2021/03/01 02:28:59;;;;;;;;;;;1.90;99.90;;;;;;5077733;28;19919;-60
2021/03/01 02:31:25;;;;;;;;;;;1.90;99.90;;;;;;5078102;28;19908;-60
2021/03/01 02:33:52;;;;;;;;;;;1.80;99.90;;;;;;5078485;28;19911;-60
2021/03/01 02:36:19;;;;;;;;;;;1.90;99.90;;;;;;5077712;28;19911;-60
2021/03/01 02:38:45;;;;;;;;;;;1.90;99.90;;;;;;5096388;28;19908;-60
2021/03/01 02:41:11;;;;;;;;;;;1.90;99.90;;;;;;5078417;28;19907;-60
2021/03/01 02:43:38;;;;;;;;;;;1.90;99.90;;;;;;5095827;28;19908;-60
2021/03/01 02:46:03;;;;;;;;;;;1.90;99.90;;;;;;5096358;28;19908;-60
2021/03/01 02:48:29;;;;;;;;;;;1.90;99.90;;;;;;5096041;28;20360;-60
2021/03/01 02:50:55;;;;;;;;;;;1.90;99.90;;;;;;5078210;28;19911;-60
2021/03/01 02:53:21;;;;;;;;;;;1.80;99.90;;;;;;5077880;28;19910;-60
2021/03/01 02:55:48;;;;;;;;;;;1.80;99.90;;;;;;5077950;28;19904;-60
2021/03/01 02:58:14;;;;;;;;;;;1.80;99.90;;;;;;5077896;28;19920;-60
2021/03/01 03:00:40;;;;;;;;;;;1.80;99.90;;;;;;5096268;28;19904;-60
2021/03/01 03:03:07;;;;;;;;;;;1.70;99.90;;;;;;5077943;28;19904;-59
2021/03/01 03:05:33;;;;;;;;;;;1.80;99.90;;;;;;5095453;28;19912;-60
2021/03/01 03:07:59;;;;;;;;;;;1.80;99.90;;;;;;5077177;28;19904;-60
2021/03/01 03:10:24;;;;;;;;;;;1.70;99.90;;;;;;5077171;28;19912;-60
2021/03/01 03:12:50;;;;;;;;;;;1.70;99.90;;;;;;5077742;28;19911;-60
2021/03/01 03:15:20;;;;;;;;;;;1.70;99.90;;;;;;5076302;28;19908;-60
2021/03/01 03:17:46;;;;;;;;;;;1.70;99.90;;;;;;5056617;28;19916;-60
2021/03/01 03:20:12;;;;;;;;;;;1.80;99.90;;;;;;5073471;28;20281;-60
2021/03/01 03:22:38;;;;;;;;;;;1.70;99.90;;;;;;5095238;28;19915;-60
2021/03/01 03:25:04;;;;;;;;;;;1.70;99.90;;;;;;5095416;28;19908;-60
2021/03/01 03:27:30;;;;;;;;;;;1.70;99.90;;;;;;5095288;28;20285;-60
2021/03/01 03:29:56;;;;;;;;;;;1.70;99.90;;;;;;5076737;28;19924;-60
2021/03/01 03:32:22;;;;;;;;;;;1.70;99.90;;;;;;5095193;28;19911;-60
2021/03/01 03:34:48;;;;;;;;;;;1.70;99.90;;;;;;5095048;28;19904;-60
2021/03/01 03:37:17;;;;;;;;;;;1.70;99.90;;;;;;5077173;28;19923;-60
2021/03/01 03:39:45;;;;;;;;;;;1.60;99.90;;;;;;5076763;28;19912;-60
2021/03/01 03:42:12;;;;;;;;;;;1.60;99.90;;;;;;5095327;28;20308;-60
2021/03/01 03:44:37;;;;;;;;;;;1.50;99.90;;;;;;5077018;28;19904;-59
2021/03/01 03:47:06;;;;;;;;;;;1.50;99.90;;;;;;5076772;28;19911;-59
2021/03/01 03:49:32;;;;;;;;;;;1.50;99.90;;;;;;5076869;28;19910;-59
2021/03/01 03:51:58;;;;;;;;;;;1.50;99.90;;;;;;5094966;28;19927;-59
2021/03/01 03:54:25;;;;;;;;;;;1.60;99.90;;;;;;5076182;28;20348;-60
2021/03/01 03:56:52;;;;;;;;;;;1.50;99.90;;;;;;5095050;28;19920;-59
2021/03/01 03:59:18;;;;;;;;;;;1.50;99.90;;;;;;5095024;28;19904;-59
2021/03/01 04:01:44;;;;;;;;;;;1.40;99.90;;;;;;5076573;28;19908;-60
2021/03/01 04:04:10;;;;;;;;;;;1.30;99.90;;;;;;5094993;28;19911;-60
2021/03/01 04:06:37;;;;;;;;;;;1.30;99.90;;;;;;5093903;28;19908;-59
2021/03/01 04:09:03;;;;;;;;;;;1.40;99.90;;;;;;5094771;28;19926;-59
2021/03/01 04:11:29;;;;;;;;;;;1.40;99.90;;;;;;5075941;28;19931;-59
2021/03/01 04:13:55;;;;;;;;;;;1.30;99.90;;;;;;5076056;28;20348;-60
2021/03/01 04:16:22;;;;;;;;;;;1.30;99.90;;;;;;5076550;28;19904;-60
2021/03/01 04:18:49;;;;;;;;;;;1.30;99.90;;;;;;5076007;28;19908;-60
2021/03/01 04:21:14;;;;;;;;;;;1.20;99.90;;;;;;5093617;28;19912;-59
2021/03/01 04:23:40;;;;;;;;;;;1.20;99.90;;;;;;5094050;28;19919;-60
2021/03/01 04:26:06;;;;;;;;;;;1.10;99.90;;;;;;5076330;28;19904;-60
2021/03/01 04:28:32;;;;;;;;;;;1.10;99.90;;;;;;5075521;28;19942;-60
2021/03/01 04:30:59;;;;;;;;;;;1.10;99.90;;;;;;5093700;28;20353;-60
2021/03/01 04:33:25;;;;;;;;;;;1.20;99.90;;;;;;5093998;28;19911;-60
2021/03/01 04:35:51;;;;;;;;;;;1.10;99.90;;;;;;5093865;28;19908;-60
2021/03/01 04:38:17;;;;;;;;;;;1.00;99.90;;;;;;5076076;28;19912;-60
2021/03/01 04:40:43;;;;;;;;;;;1.10;99.90;;;;;;5093577;28;19966;-60
2021/03/01 04:43:10;;;;;;;;;;;1.00;99.90;;;;;;5093878;28;20353;-59
2021/03/01 04:45:37;;;;;;;;;;;1.00;99.90;;;;;;5075757;28;20308;-60
2021/03/01 04:48:03;;;;;;;;;;;1.00;99.90;;;;;;5094046;28;19904;-60
2021/03/01 04:50:29;;;;;;;;;;;1.00;99.90;;;;;;5075811;28;19904;-59
2021/03/01 04:52:55;;;;;;;;;;;0.90;99.90;;;;;;5075661;28;19915;-60
2021/03/01 04:55:21;;;;;;;;;;;0.90;99.90;;;;;;5075886;28;19912;-59
2021/03/01 04:57:47;;;;;;;;;;;0.80;99.90;;;;;;5075363;28;20319;-59
2021/03/01 05:00:13;;;;;;;;;;;0.90;99.90;;;;;;5075827;28;19908;-59
2021/03/01 05:02:39;;;;;;;;;;;0.80;99.90;;;;;;5045197;28;19905;-60
2021/03/01 05:05:05;;;;;;;;;;;0.70;99.90;;;;;;5055974;28;19908;-59
2021/03/01 05:07:31;;;;;;;;;;;0.80;99.90;;;;;;5073461;28;19915;-59
2021/03/01 05:09:57;;;;;;;;;;;0.70;99.90;;;;;;5077233;28;19904;-59
2021/03/01 05:12:24;;;;;;;;;;;0.60;99.90;;;;;;5075665;28;19908;-60
2021/03/01 05:14:50;;;;;;;;;;;0.50;99.90;;;;;;5093383;28;19912;-60
2021/03/01 05:17:16;;;;;;;;;;;0.50;99.90;;;;;;5093224;28;20375;-59
2021/03/01 05:19:42;;;;;;;;;;;0.70;99.90;;;;;;5093376;28;19908;-60
2021/03/01 05:22:07;;;;;;;;;;;0.70;99.90;;;;;;5093644;28;19908;-61
2021/03/01 05:24:33;;;;;;;;;;;0.60;99.90;;;;;;5093154;28;19966;-60
2021/03/01 05:26:59;;;;;;;;;;;0.50;99.90;;;;;;5074962;28;19912;-60
2021/03/01 05:29:25;;;;;;;;;;;0.50;99.90;;;;;;5092987;28;19924;-60
2021/03/01 05:31:51;;;;;;;;;;;0.40;99.90;;;;;;5091890;28;19912;-60
2021/03/01 05:34:17;;;;;;;;;;;0.40;99.90;;;;;;5093578;28;20303;-60
2021/03/01 05:36:43;;;;;;;;;;;0.30;99.90;;;;;;5074861;28;19911;-60
2021/03/01 05:39:09;;;;;;;;;;;0.40;99.90;;;;;;5093071;28;19919;-60
2021/03/01 05:41:35;;;;;;;;;;;0.40;99.90;;;;;;5092880;28;19956;-60
2021/03/01 05:44:01;;;;;;;;;;;0.40;99.90;;;;;;5092697;28;19908;-60
2021/03/01 05:46:27;;;;;;;;;;;0.40;99.90;;;;;;5093349;28;19919;-60
2021/03/01 05:48:53;;;;;;;;;;;0.40;99.90;;;;;;5092431;28;19923;-60
2021/03/01 05:51:20;;;;;;;;;;;0.30;99.90;;;;;;5093030;28;20387;-60
2021/03/01 05:53:46;;;;;;;;;;;0.30;99.90;;;;;;5074755;28;19904;-60
2021/03/01 05:56:12;;;;;;;;;;;0.20;99.90;;;;;;5074567;28;20268;-60
2021/03/01 05:58:38;;;;;;;;;;;0.30;99.90;;;;;;5092705;28;19927;-60
2021/03/01 06:01:04;;;;;;;;;;;0.20;99.90;;;;;;5074449;28;19908;-60
2021/03/01 06:03:30;;;;;;;;;;;0.20;99.90;;;;;;5091965;28;19908;-60
2021/03/01 06:05:56;;;;;;;;;;;0.20;99.90;;;;;;5092839;28;19927;-60
2021/03/01 06:08:23;;;;;;;;;;;0.20;99.90;;;;;;5092923;28;19908;-60
2021/03/01 06:10:49;;;;;;;;;;;0.20;99.90;;;;;;5092776;28;19904;-60
2021/03/01 06:13:15;;;;;;;;;;;0.20;99.90;;;;;;5092747;28;19916;-59
2021/03/01 06:15:41;;;;;;;;;;;0.30;99.90;;;;;;5092858;28;19908;-60
2021/03/01 06:18:08;;;;;;;;;;;0.20;99.90;;;;;;5074575;28;19994;-60
2021/03/01 06:20:34;;;;;;;;;;;0.20;99.90;;;;;;5092659;28;19912;-60
2021/03/01 06:23:00;;;;;;;;;;;0.20;99.90;;;;;;5092414;28;19916;-60
2021/03/01 06:25:26;;;;;;;;;;;0.30;99.90;;;;;;5074330;28;19912;-59
2021/03/01 06:27:55;;;;;;;;;;;0.20;99.90;;;;;;5091268;28;19912;-60
2021/03/01 06:30:23;;;;;;;;;;;0.30;99.90;;;;;;5091072;28;19931;-59
2021/03/01 06:33:05;;;;;;;;;;;0.30;99.90;;;;;;5091970;28;19918;-60
2021/03/01 06:35:32;;;;;;;;;;;0.30;99.90;;;;;;5091523;28;19908;-60
2021/03/01 06:38:16;;;;;;;;;;;0.30;99.90;;;;;;5073663;28;19920;-60
2021/03/01 06:40:42;;;;;;;;;;;0.40;99.90;;;;;;5091176;28;20379;-60
2021/03/01 06:43:12;;;;;;;;;;;0.40;99.90;;;;;;5093085;28;19912;-60
2021/03/01 06:45:38;;;;;;;;;;;0.40;99.90;;;;;;5096014;28;19908;-60
2021/03/01 06:48:04;;;;;;;;;;;0.60;99.90;;;;;;5095578;28;19911;-60
2021/03/01 06:50:48;;;;;;;;;;;0.70;99.90;;;;;;5076342;28;19923;-60
2021/03/01 06:53:15;;;;;;;;;;;0.90;99.90;;;;;;5093364;28;19919;-60
2021/03/01 06:55:53;;;;;;;;;;;1.00;99.90;;;;;;5094001;28;19915;-60
2021/03/01 06:58:19;;;;;;;;;;;1.10;99.90;;;;;;5093296;28;19920;-60
2021/03/01 07:00:45;;;;;;;;;;;1.20;99.90;;;;;;5095237;28;19908;-61
2021/03/01 07:03:24;;;;;;;;;;;1.30;99.90;;;;;;5095380;28;19919;-60
2021/03/01 07:05:53;;;;;;;;;;;1.30;99.90;;;;;;5092951;28;19912;-60
2021/03/01 07:08:39;;;;;;;;;;;1.40;99.90;;;;;;5095129;28;20262;-60
2021/03/01 07:11:25;;;;;;;;;;;1.40;99.90;;;;;;5095039;28;19915;-61
2021/03/01 07:13:55;;;;;;;;;;;1.60;99.90;;;;;;5094361;28;19915;-61
2021/03/01 07:16:21;;;;;;;;;;;1.70;99.90;;;;;;5095310;28;19911;-61
2021/03/01 07:18:47;;;;;;;;;;;1.80;99.90;;;;;;5095165;28;20002;-61
2021/03/01 07:21:13;;;;;;;;;;;2.00;99.90;;;;;;5077042;28;19912;-61
2021/03/01 07:23:40;;;;;;;;;;;2.10;99.90;;;;;;5095169;28;19919;-61
2021/03/01 07:26:06;;;;;;;;;;;2.10;99.90;;;;;;5094904;28;19915;-62
2021/03/01 07:28:32;;;;;;;;;;;2.30;99.90;;;;;;5076535;28;19920;-61
2021/03/01 07:30:58;;;;;;;;;;;2.50;99.90;;;;;;5094603;28;19955;-61
2021/03/01 07:33:24;;;;;;;;;;;2.70;99.90;;;;;;5077042;28;19904;-61
2021/03/01 07:35:50;;;;;;;;;;;3.10;99.90;;;;;;5076612;28;19919;-61
2021/03/01 07:38:16;;;;;;;;;;;4.10;99.90;;;;;;5094545;28;20273;-61
2021/03/01 07:40:42;;;;;;;;;;;5.00;99.90;;;;;;5076362;28;19905;-61
2021/03/01 07:43:08;;;;;;;;;;;5.70;99.90;;;;;;5076074;28;20277;-61
2021/03/01 07:45:33;;;;;;;;;;;6.50;99.90;;;;;;5094721;28;19961;-61
2021/03/01 07:48:10;;;;;;;;;;;6.60;96.10;;;;;;5094312;28;19927;-61
2021/03/01 07:50:37;;;;;;;;;;;7.00;95.30;;;;;;5092305;28;19931;-61
2021/03/01 07:53:03;;;;;;;;;;;8.70;93.70;;;;;;5076969;28;19911;-61
2021/03/01 07:55:29;;;;;;;;;;;9.50;90.40;;;;;;5094981;28;19908;-61
2021/03/01 07:58:02;;;;;;;;;;;10.20;86.20;;;;;;5095161;28;19931;-61
2021/03/01 08:00:29;;;;;;;;;;;9.20;79.60;;;;;;5094071;28;19912;-62
2021/03/01 08:02:56;;;;;;;;;;;10.20;84.90;;;;;;5076591;28;19904;-61
2021/03/01 08:05:28;;;;;;;;;;;10.50;80.20;;;;;;5093827;28;20384;-61
2021/03/01 08:07:54;;;;;;;;;;;10.50;85.50;;;;;;5091184;28;19908;-61
2021/03/01 08:10:29;;;;;;;;;;;10.70;83.20;;;;;;5075817;28;19908;-61
2021/03/01 08:12:56;;;;;;;;;;;11.10;79.10;;;;;;5091898;28;19908;-61
2021/03/01 08:15:23;;;;;;;;;;;11.90;75.10;;;;;;5075923;28;19908;-61
2021/03/01 08:17:50;;;;;;;;;;;12.20;75.50;;;;;;5094010;28;19935;-62
2021/03/01 08:20:15;;;;;;;;;;;12.90;74.00;;;;;;5093511;28;19912;-61
2021/03/01 08:23:09;;;;;;;;;;;13.10;67.80;;;;;;5094518;28;19904;-61
2021/03/01 08:25:44;;;;;;;;;;;12.80;67.00;;;;;;5091733;28;19908;-61
2021/03/01 08:28:16;;;;;;;;;;;12.80;68.20;;;;;;5093869;28;19912;-61
2021/03/01 08:30:45;;;;;;;;;;;11.60;68.70;;;;;;5094732;28;19916;-61
2021/03/01 08:33:11;;;;;;;;;;;12.20;68.80;;;;;;5068461;28;19915;-61
2021/03/01 08:35:40;;;;;;;;;;;11.60;71.90;;;;;;5094152;28;19904;-61
2021/03/01 08:38:07;;;;;;;;;;;12.30;71.80;;;;;;5093359;28;19912;-61
2021/03/01 08:40:33;;;;;;;;;;;11.80;70.70;;;;;;5094161;28;19908;-61
2021/03/01 08:43:02;;;;;;;;;;;12.00;69.20;;;;;;5093468;28;19950;-61
2021/03/01 08:45:32;;;;;;;;;;;12.80;68.50;;;;;;5093726;28;19908;-61
2021/03/01 08:47:59;;;;;;;;;;;11.70;68.10;;;;;;5093586;28;19908;-61
2021/03/01 08:50:26;;;;;;;;;;;11.90;70.00;;;;;;5091939;28;20534;-62
2021/03/01 08:52:52;;;;;;;;;;;12.20;67.90;;;;;;5093286;28;19908;-61
2021/03/01 08:55:18;;;;;;;;;;;13.00;67.40;;;;;;5089921;28;20451;-61
2021/03/01 08:58:14;;;;;;;;;;;12.40;64.30;;;;;;5092650;28;20272;-61
2021/03/01 09:00:53;;;;;;;;;;;12.00;67.60;;;;;;5083370;28;19939;-61
2021/03/01 09:03:22;;;;;;;;;;;12.70;68.30;;;;;;5091775;28;20395;-62
2021/03/01 09:05:49;;;;;;;;;;;11.60;67.90;;;;;;5092162;28;19915;-61
2021/03/01 09:08:25;;;;;;;;;;;12.00;67.20;;;;;;5092609;28;19930;-61
2021/03/01 09:10:51;;;;;;;;;;;11.80;67.80;;;;;;5093291;28;19919;-61
2021/03/01 09:13:20;;;;;;;;;;;12.20;67.00;;;;;;5092269;28;19912;-61
2021/03/01 09:15:47;;;;;;;;;;;12.90;67.90;;;;;;5090061;28;19908;-61
2021/03/01 09:18:13;;;;;;;;;;;12.50;65.90;;;;;;5091845;28;19916;-61
2021/03/01 09:20:39;;;;;;;;;;;12.30;63.90;;;;;;5091679;28;19920;-61
2021/03/01 09:23:05;;;;;;;;;;;12.60;63.80;;;;;;5092376;28;19912;-61
2021/03/01 09:25:32;;;;;;;;;;;12.30;65.90;;;;;;5092705;28;20105;-61
2021/03/01 09:27:58;;;;;;;;;;;11.80;65.30;;;;;;5093673;28;19912;-61
2021/03/01 09:30:24;;;;;;;;;;;11.70;67.80;;;;;;5075006;28;20372;-62
2021/03/01 09:32:56;;;;;;;;;;;12.20;70.70;;;;;;5092744;28;19978;-61
2021/03/01 09:35:22;;;;;;;;;;;11.70;66.40;;;;;;5093096;28;19908;-61
2021/03/01 09:37:48;;;;;;;15.65;3.00;;;12.80;63.60;;;;;;5090198;28;19930;-59
2021/03/01 09:40:19;;;;;;;16.30;3.55;;;13.40;63.00;;;;;;5087123;28;20397;-60
2021/03/01 09:42:49;;;;;;;14.20;3.20;;;13.40;60.50;;;;;;5091475;28;20899;-60
2021/03/01 09:45:16;;;;;;;14.52;3.40;;;13.80;59.90;;;;;;5073292;28;20385;-60
2021/03/01 09:47:42;;;;;;;15.90;3.40;;;14.10;60.10;;;;;;5091437;28;20399;-60
2021/03/01 09:50:08;;;;;;;17.10;3.07;;;13.90;57.30;;;;;;5056273;28;20757;-60
2021/03/01 09:52:35;;;;;;;14.03;3.00;;;13.90;56.90;;;;;;5073045;28;20888;-60
2021/03/01 09:55:01;;;;;;;16.23;3.53;;;12.50;59.20;;;;;;5091508;28;20384;-59
2021/03/01 09:57:29;;;;;;;17.92;3.50;;;11.90;63.60;;;;;;5063373;28;20408;-60
2021/03/01 09:59:55;;;;;;;17.88;3.47;;;11.70;63.40;;;;;;5072576;28;20407;-60
2021/03/01 10:02:24;;;;;;;14.55;3.50;;;12.00;65.20;;;;;;5072830;28;20388;-60
2021/03/01 10:05:08;;;;;;;14.75;3.53;;;12.10;65.00;;;;;;5090964;28;20391;-60
2021/03/01 10:07:34;;;;;;;22.40;4.18;;;12.50;61.90;;;;;;5071085;28;20747;-60
2021/03/01 10:10:14;;;;;;;16.80;4.35;;;13.20;61.40;;;;;;5085390;28;20404;-60
2021/03/01 10:12:46;;;;;;;13.30;3.70;;;13.70;60.00;;;;;;5072688;28;20729;-60
2021/03/01 10:15:13;;;;;;;13.98;3.67;;;14.70;56.00;;;;;;5090641;28;20385;-60
2021/03/01 10:17:39;;;;;;;17.98;3.53;;;15.80;52.90;;;;;;5056653;28;20384;-60
2021/03/01 10:20:07;;;;;;;17.15;3.72;;;15.30;51.60;;;;;;5077360;28;20388;-60
2021/03/01 10:23:02;;;;;;;15.68;3.80;;;14.90;51.60;;;;;;5060140;28;20372;-60
2021/03/01 10:25:36;;;;;;;16.17;3.70;;;14.40;56.90;;;;;;5076713;28;20383;-60
2021/03/01 10:28:27;;;;;;;15.65;3.58;;;13.40;56.30;;;;;;5094536;28;20389;-60
2021/03/01 10:31:06;;;;;;;17.17;3.53;;;14.20;56.70;;;;;;5090296;28;20396;-60
2021/03/01 10:33:49;;;;;;;14.38;3.63;;;14.60;53.90;;;;;;5070306;28;20384;-61
2021/03/01 10:36:15;;;;;;;15.57;3.90;;;14.40;56.00;;;;;;5093931;28;20395;-60
2021/03/01 10:39:06;;;;;;;15.27;3.60;;;14.60;54.90;;;;;;5074987;28;20416;-61
2021/03/01 10:41:39;;;;;;;16.00;3.57;;;15.40;52.70;;;;;;5085067;28;20385;-60
2021/03/01 10:44:06;;;;;;;13.50;3.53;;;13.90;54.50;;;;;;5093974;28;20384;-60
2021/03/01 10:46:36;;;;;;;17.10;3.90;;;13.40;56.30;;;;;;5074477;28;20388;-60
2021/03/01 10:49:03;;;;;;;15.87;3.90;;;12.20;60.30;;;;;;5093815;28;20384;-60
2021/03/01 10:51:29;;;;;;;18.55;3.95;;;11.80;62.10;;;;;;5093765;28;20722;-60
2021/03/01 10:53:55;;;;;;;16.02;3.85;;;12.70;61.90;;;;;;5091981;28;20393;-60
2021/03/01 10:56:21;;;;;;;15.80;3.72;;;13.40;56.60;;;;;;5093161;28;20383;-60
2021/03/01 10:58:50;;;;;;;17.25;3.50;;;13.70;58.00;;;;;;5092562;28;20411;-61
2021/03/01 11:01:16;;;;;;;17.17;3.90;;;14.80;56.00;;;;;;5092569;28;20381;-60
2021/03/01 11:03:43;;;;;;;19.77;3.80;;;14.90;52.70;;;;;;5092597;28;20900;-61
2021/03/01 11:06:09;;;;;;;16.63;3.80;;;14.70;54.10;;;;;;5093921;28;20461;-60
2021/03/01 11:08:36;;;;;;;15.40;3.83;;;12.70;58.30;;;;;;5093337;28;20392;-60
2021/03/01 11:11:02;;;;;;;14.23;3.75;;;11.90;61.90;;;;;;5093578;28;20381;-60
2021/03/01 11:13:28;;;;;;;17.38;4.45;;;11.70;62.90;;;;;;5075598;28;20395;-60
2021/03/01 11:15:54;;;;;;;14.50;3.83;;;10.80;65.50;;;;;;5092154;28;20388;-60
2021/03/01 11:18:20;;;;;;;16.40;4.05;;;10.80;66.80;;;;;;5092951;28;20404;-60
2021/03/01 11:20:46;;;;;;;17.15;3.90;;;10.10;68.10;;;;;;5092425;28;20399;-60
2021/03/01 11:23:12;;;;;;;17.75;3.75;;;9.50;72.60;;;;;;5093168;28;20392;-60
2021/03/01 11:25:38;;;;;;;21.02;4.28;;;10.40;70.00;;;;;;5092533;28;20733;-60
2021/03/01 11:28:09;;;;;;;14.52;3.42;;;10.90;68.80;;;;;;5092910;28;20396;-60
2021/03/01 11:30:35;;;;;;;13.27;3.70;;;11.40;64.90;;;;;;5087633;28;20399;-61
2021/03/01 11:33:01;;;;;;;16.17;3.75;;;10.90;65.70;;;;;;5091333;28;20392;-60
2021/03/01 11:35:27;;;;;;;13.98;3.88;;;9.90;70.00;;;;;;5092175;28;20462;-60
2021/03/01 11:37:53;;;;;;;17.05;3.72;;;9.50;71.70;;;;;;5073322;28;20397;-61
2021/03/01 11:40:20;;;;;;;15.50;3.78;;;8.80;75.30;;;;;;5093285;28;20444;-62
2021/03/01 11:42:46;;;;;;;15.68;3.90;;;8.50;76.40;;;;;;5092881;28;20702;-63
2021/03/01 11:45:12;;;;;;;16.98;3.78;;;8.50;76.70;;;;;;5075016;28;20399;-62
2021/03/01 11:47:38;;;;;;;16.65;3.83;;;8.10;79.70;;;;;;5092296;28;20383;-62
2021/03/01 11:50:05;;;;;;;15.35;3.97;;;8.40;78.10;;;;;;5092690;28;20408;-62
2021/03/01 11:52:32;;;;;;;17.33;3.85;;;8.40;78.20;;;;;;5093117;28;20372;-62
2021/03/01 11:54:58;;;;;;;18.58;4.10;;;8.20;79.80;;;;;;5092444;28;20392;-62
2021/03/01 11:57:27;;;;;;;18.45;5.00;;;8.20;79.00;;;;;;5092951;28;20905;-62
2021/03/01 11:59:53;;;;;;;14.50;3.90;;;8.00;80.00;;;;;;5092878;28;20405;-60
2021/03/01 12:02:20;;;;;;;16.83;4.18;;;8.00;81.40;;;;;;5074619;28;20861;-63
2021/03/01 12:04:46;;;;;;;16.57;4.10;;;7.90;82.20;;;;;;5092817;28;20384;-62
2021/03/01 12:07:12;;;;;;;17.08;4.07;;;7.80;82.70;;;;;;5075004;28;20376;-62
2021/03/01 12:09:38;;;;;;;15.93;3.90;;;7.60;82.70;;;;;;5092389;28;20380;-63
2021/03/01 12:12:05;;;;;;;19.57;4.30;;;7.50;82.70;;;;;;5072760;28;20379;-62
2021/03/01 12:14:31;;;;;;;15.35;4.30;;;7.20;84.20;;;;;;5082748;28;20451;-62
2021/03/01 12:16:57;;;;;;;13.20;4.00;;;6.90;86.10;;;;;;5074371;28;20387;-63
2021/03/01 12:19:23;;;;;;;16.60;4.55;;;7.30;86.70;;;;;;5092399;28;20405;-62
2021/03/01 12:21:49;;;;;;;;;;;7.30;85.10;;;;;;5093135;28;20384;-62
2021/03/01 12:24:15;;;;;;;;;;;7.20;85.70;;;;;;5092748;28;19916;-62
2021/03/01 12:26:41;;;;;;;;;;;7.10;87.00;;;;;;5092648;28;19916;-63
2021/03/01 12:29:08;;;;;;;;;;;7.20;87.40;;;;;;5092940;28;20011;-62
2021/03/01 12:31:34;;;;;;;;;;;7.00;88.10;;;;;;5093276;28;19912;-62
2021/03/01 12:34:02;;;;;;;;;;;6.90;88.60;;;;;;5093068;28;20397;-62
2021/03/01 12:36:29;;;;;;;;;;;7.00;88.40;;;;;;5093721;28;19931;-62
2021/03/01 12:38:55;;;;;;;;;;;7.10;88.90;;;;;;5093584;28;19920;-62
2021/03/01 12:41:21;;;;;;;;;;;7.20;88.00;;;;;;5074709;28;19915;-62
2021/03/01 12:43:47;;;;;;;;;;;7.00;88.50;;;;;;5092975;28;19919;-62
2021/03/01 12:46:12;;;;;;;;;;;7.20;89.20;;;;;;5092039;28;19951;-62
2021/03/01 12:48:38;;;;;;;;;;;6.90;88.10;;;;;;5093632;28;20361;-62
2021/03/01 12:51:04;;;;;;;;;;;6.50;90.10;;;;;;5093522;28;19912;-62
2021/03/01 12:53:30;;;;;;;;;;;6.40;90.40;;;;;;5092947;28;19919;-62
2021/03/01 12:55:56;;;;;;;;;;;6.30;90.60;;;;;;5093217;28;19912;-62
2021/03/01 12:58:22;;;;;;;;;;;6.40;90.70;;;;;;5093804;28;19920;-63
2021/03/01 13:00:48;;;;;;;;;;;6.30;91.00;;;;;;5092804;28;20412;-63
2021/03/01 13:03:14;;;;;;;;;;;6.20;91.50;;;;;;5093268;28;20014;-62
2021/03/01 13:05:40;;;;;;;;;;;6.30;91.50;;;;;;5093473;28;19908;-63
2021/03/01 13:08:07;;;;;;;;;;;6.30;91.20;;;;;;5093355;28;20276;-62
2021/03/01 13:10:33;;;;;;;;;;;6.20;91.60;;;;;;5093488;28;19935;-62
2021/03/01 13:12:59;;;;;;;;;;;6.30;91.80;;;;;;5093107;28;19915;-62
2021/03/01 13:15:25;;;;;;;;;;;6.10;92.00;;;;;;5074847;28;19935;-62
2021/03/01 13:17:51;;;;;;;;;;;6.20;92.10;;;;;;5092138;28;19918;-62
2021/03/01 13:20:17;;;;;;;;;;;6.20;91.40;;;;;;5073378;28;19924;-62
2021/03/01 13:22:43;;;;;;;;;;;6.20;91.60;;;;;;5074372;28;19912;-62
2021/03/01 13:25:09;;;;;;;;;;;6.10;92.10;;;;;;5092318;28;20288;-62
2021/03/01 13:27:35;;;;;;;;;;;6.20;92.30;;;;;;5093423;28;20234;-62
2021/03/01 13:30:01;;;;;;;;;;;6.10;92.30;;;;;;5092422;28;19925;-62
2021/03/01 13:32:27;;;;;;;;;;;6.00;92.70;;;;;;5074236;28;19912;-62
2021/03/01 13:34:53;;;;;;;;;;;5.90;92.80;;;;;;5087557;28;19923;-62
2021/03/01 13:37:20;;;;;;;;;;;6.00;92.60;;;;;;5092564;28;19919;-62
2021/03/01 13:39:45;;;;;;;;;;;6.00;92.80;;;;;;5074789;28;20372;-63
2021/03/01 13:42:11;;;;;;;;;;;6.20;92.30;;;;;;5092216;28;19916;-62
2021/03/01 13:44:37;;;;;;;;;;;6.00;92.70;;;;;;5092529;28;19916;-62
2021/03/01 13:47:03;;;;;;;;;;;6.10;92.50;;;;;;5092008;28;19969;-62